Time;durP1;ratioP1;P1;durP2;ratioP2;P2;SDS_P1;SDS_P2;PMS_P1;PMS_P2;Temp;Humidity;BMP_temperature;BMP_pressure;BME280_temperature;BME280_humidity;BME280_pressure;Samples;Min_cycle;Max_cycle;Signal;HPM_P1;HPM_P2
2023/06/30 00:00:15;;;;;;;7.18;3.42;;;19.40;99.90;;;;;;7398967;19;19915;-72
2023/06/30 00:02:42;;;;;;;12.70;4.78;;;19.50;99.90;;;;;;7380720;19;20686;-73
2023/06/30 00:05:09;;;;;;;9.07;3.85;;;19.40;99.90;;;;;;7374353;19;19910;-73
2023/06/30 00:07:38;;;;;;;9.13;3.80;;;18.90;99.90;;;;;;7382157;19;19989;-72
2023/06/30 00:10:04;;;;;;;7.50;3.72;;;18.70;99.90;;;;;;7397503;19;19992;-72
2023/06/30 00:12:30;;;;;;;7.30;3.53;;;18.50;99.90;;;;;;7400978;19;19922;-71
2023/06/30 00:14:56;;;;;;;6.70;3.67;;;18.40;99.90;;;;;;7403506;19;20407;-72
2023/06/30 00:17:21;;;;;;;7.20;3.95;;;18.50;99.90;;;;;;7402427;19;19998;-71
2023/06/30 00:19:50;;;;;;;8.27;3.35;;;18.50;99.90;;;;;;7400842;19;19947;-71
2023/06/30 00:22:22;;;;;;;6.00;3.53;;;18.50;99.90;;;;;;7398058;19;19915;-72
2023/06/30 00:24:55;;;;;;;9.88;3.50;;;18.60;99.90;;;;;;7399434;19;19926;-70
2023/06/30 01:01:43;;;;;;;7.88;4.07;;;18.60;99.90;;;;;;7402731;19;19925;-73
2023/06/30 01:04:23;;;;;;;10.93;3.75;;;18.60;99.90;;;;;;7391634;19;19926;-72
2023/06/30 01:07:01;;;;;;;7.15;3.63;;;18.50;99.90;;;;;;7401894;19;19950;-72
2023/06/30 01:09:32;;;;;;;8.52;3.90;;;18.60;99.90;;;;;;7399937;19;19934;-72
2023/06/30 01:11:59;;;;;;;7.65;3.50;;;18.70;99.90;;;;;;7399878;19;19914;-73
2023/06/30 01:14:27;;;;;;;8.32;3.97;;;18.70;99.90;;;;;;7396092;19;19953;-73
2023/06/30 01:16:54;;;;;;;8.48;4.13;;;18.80;99.90;;;;;;7400683;19;19925;-73
2023/06/30 01:19:34;;;;;;;7.10;3.53;;;18.80;99.90;;;;;;7398460;19;20310;-73
2023/06/30 01:22:33;;;;;;;6.50;3.63;;;18.70;99.90;;;;;;7398148;19;19926;-72
2023/06/30 01:25:05;;;;;;;6.97;3.53;;;18.80;99.90;;;;;;7397930;19;19918;-73
2023/06/30 01:27:31;;;;;;;7.40;3.45;;;19.00;99.90;;;;;;7400763;19;19918;-73
2023/06/30 01:29:57;;;;;;;7.25;4.28;;;19.00;99.90;;;;;;7400140;19;19915;-72
2023/06/30 01:32:23;;;;;;;9.07;4.38;;;19.00;99.90;;;;;;7342163;19;20006;-72
2023/06/30 01:34:49;;;;;;;6.82;3.90;;;19.20;99.90;;;;;;7403275;19;19922;-73
2023/06/30 01:37:15;;;;;;;7.50;4.35;;;19.10;99.90;;;;;;7396871;19;19919;-73
2023/06/30 01:39:41;;;;;;;7.13;3.50;;;19.30;99.90;;;;;;7399739;19;20449;-72
2023/06/30 01:42:08;;;;;;;7.82;3.65;;;19.40;99.90;;;;;;7398756;19;19911;-74
2023/06/30 01:44:35;;;;;;;8.45;3.63;;;19.60;99.90;;;;;;7395944;19;20311;-73
2023/06/30 01:47:02;;;;;;;8.05;3.58;;;19.60;99.90;;;;;;7403608;19;19910;-73
2023/06/30 01:49:28;;;;;;;8.73;3.70;;;19.80;99.90;;;;;;7406568;19;19943;-73
2023/06/30 01:51:54;;;;;;;6.55;3.90;;;19.90;99.90;;;;;;7403102;19;19921;-72
2023/06/30 01:54:20;;;;;;;9.90;4.13;;;19.80;99.90;;;;;;7402372;19;19914;-72
2023/06/30 01:56:50;;;;;;;8.18;4.35;;;19.80;99.90;;;;;;7403303;19;20339;-73
2023/06/30 01:59:16;;;;;;;7.13;3.40;;;19.80;99.90;;;;;;7402712;19;19910;-73
2023/06/30 02:01:42;;;;;;;6.80;3.50;;;19.90;99.90;;;;;;7405969;19;19915;-72
2023/06/30 02:04:09;;;;;;;7.50;4.22;;;20.00;99.90;;;;;;7405761;19;19910;-71
2023/06/30 02:06:35;;;;;;;8.15;4.22;;;20.00;99.90;;;;;;7403602;19;20316;-71
2023/06/30 02:09:02;;;;;;;7.97;4.05;;;19.90;99.90;;;;;;7407487;19;19919;-71
2023/06/30 02:11:27;;;;;;;7.65;4.00;;;20.00;99.90;;;;;;7405548;19;19915;-72
2023/06/30 02:13:53;;;;;;;8.02;4.40;;;20.00;99.90;;;;;;7404001;19;19951;-71
2023/06/30 02:16:19;;;;;;;9.00;4.35;;;20.00;99.90;;;;;;7405317;19;19931;-72
2023/06/30 02:18:45;;;;;;;7.13;3.58;;;20.10;99.90;;;;;;7404036;19;20260;-71
2023/06/30 02:21:10;;;;;;;6.97;4.40;;;20.10;99.90;;;;;;7405086;19;19949;-72
2023/06/30 02:23:36;;;;;;;8.77;4.45;;;20.10;99.90;;;;;;7402412;19;20338;-71
2023/06/30 02:26:02;;;;;;;7.78;4.32;;;20.20;99.30;;;;;;7402356;19;19919;-70
2023/06/30 02:28:28;;;;;;;8.40;4.93;;;20.20;99.90;;;;;;7402617;19;19994;-71
2023/06/30 02:30:55;;;;;;;8.38;4.50;;;20.10;99.90;;;;;;7406637;19;19922;-71
2023/06/30 02:33:21;;;;;;;8.90;5.35;;;20.10;99.90;;;;;;7401999;19;19919;-72
2023/06/30 02:35:47;;;;;;;11.82;4.95;;;20.10;99.90;;;;;;7403795;19;19939;-71
2023/06/30 02:38:12;;;;;;;10.57;4.88;;;20.00;99.90;;;;;;7400983;19;20584;-72
2023/06/30 02:40:38;;;;;;;9.82;4.32;;;20.00;99.90;;;;;;7400127;19;20251;-71
2023/06/30 02:43:04;;;;;;;10.43;4.55;;;19.90;99.90;;;;;;7400662;19;19919;-73
2023/06/30 02:45:30;;;;;;;10.40;5.90;;;19.80;99.90;;;;;;7402443;19;19922;-73
2023/06/30 02:47:56;;;;;;;9.43;4.50;;;19.70;99.90;;;;;;7402571;19;19923;-72
2023/06/30 02:50:29;;;;;;;9.38;4.82;;;19.80;99.90;;;;;;7403167;19;21295;-73
2023/06/30 02:52:57;;;;;;;8.25;4.32;;;19.90;99.90;;;;;;7402072;19;19942;-72
2023/06/30 02:55:24;;;;;;;8.98;4.85;;;19.90;99.90;;;;;;7400951;19;19930;-73
2023/06/30 02:57:50;;;;;;;11.73;4.40;;;20.00;99.90;;;;;;7401299;19;19925;-72
2023/06/30 03:00:16;;;;;;;17.23;5.75;;;20.00;99.90;;;;;;7398987;19;20346;-72
2023/06/30 03:02:42;;;;;;;9.15;4.95;;;20.00;99.90;;;;;;7397531;19;20031;-72
2023/06/30 03:05:08;;;;;;;8.45;4.63;;;20.00;99.90;;;;;;7401053;19;19922;-70
2023/06/30 03:07:34;;;;;;;9.70;4.22;;;20.00;99.90;;;;;;7401908;19;20311;-71
2023/06/30 03:10:00;;;;;;;8.18;4.45;;;20.10;99.90;;;;;;7402726;19;19939;-72
2023/06/30 03:12:26;;;;;;;9.13;4.60;;;20.30;99.00;;;;;;7399455;19;19926;-73
2023/06/30 03:14:53;;;;;;;9.32;5.30;;;20.30;99.00;;;;;;7399679;19;20624;-72
2023/06/30 03:17:18;;;;;;;11.35;5.65;;;20.40;99.50;;;;;;7399306;19;19910;-71
2023/06/30 03:19:44;;;;;;;9.88;4.75;;;20.30;99.50;;;;;;7403075;19;19974;-71
2023/06/30 03:22:10;;;;;;;8.25;4.32;;;20.40;98.20;;;;;;7397631;19;19922;-71
2023/06/30 03:24:36;;;;;;;9.73;4.40;;;20.40;97.80;;;;;;7393690;19;20022;-72
2023/06/30 03:27:02;;;;;;;10.25;4.40;;;20.40;98.10;;;;;;7399512;19;19930;-71
2023/06/30 03:29:28;;;;;;;8.02;4.35;;;20.50;97.50;;;;;;7398776;19;19915;-71
2023/06/30 03:31:54;;;;;;;9.02;4.32;;;20.50;96.90;;;;;;7399614;19;19915;-72
2023/06/30 03:34:20;;;;;;;10.57;4.45;;;20.60;96.30;;;;;;7400161;19;19919;-72
2023/06/30 03:36:46;;;;;;;9.98;3.95;;;20.70;95.80;;;;;;7397631;19;19925;-72
2023/06/30 03:39:11;;;;;;;;;;;20.70;95.40;;;;;;7216500;19;3616607;-72
2023/06/30 03:41:37;;;;;;;7.85;3.83;;;20.80;94.30;;;;;;7403048;19;19926;-73
2023/06/30 03:44:03;;;;;;;9.77;5.15;;;20.90;93.60;;;;;;7397720;19;19922;-72
2023/06/30 03:46:29;;;;;;;9.25;5.22;;;20.90;93.40;;;;;;7401896;19;19918;-71
2023/06/30 03:48:55;;;;;;;8.32;4.38;;;21.00;93.00;;;;;;7401999;19;20328;-72
2023/06/30 03:51:21;;;;;;;7.70;4.80;;;21.00;92.70;;;;;;7350773;19;19931;-71
2023/06/30 03:53:46;;;;;;;7.72;4.22;;;21.10;91.90;;;;;;7401574;19;19986;-71
2023/06/30 03:56:12;;;;;;;8.57;4.00;;;21.20;91.20;;;;;;7401728;19;19946;-71
2023/06/30 03:58:38;;;;;;;9.95;4.47;;;21.30;90.80;;;;;;7401863;19;19919;-71
2023/06/30 04:01:05;;;;;;;8.15;4.28;;;21.30;90.60;;;;;;7346694;19;19974;-71
2023/06/30 04:03:31;;;;;;;9.32;4.50;;;21.30;90.20;;;;;;7401083;19;19918;-72
2023/06/30 04:05:57;;;;;;;9.13;4.47;;;21.40;90.10;;;;;;7399373;19;19978;-71
2023/06/30 04:08:23;;;;;;;10.18;5.10;;;21.40;90.00;;;;;;7399492;19;19934;-71
2023/06/30 04:10:49;;;;;;;9.27;4.90;;;21.40;90.10;;;;;;7399208;19;19952;-72
2023/06/30 04:13:15;;;;;;;8.85;4.57;;;21.30;90.50;;;;;;7400012;19;19926;-72
2023/06/30 04:15:41;;;;;;;11.65;5.15;;;21.30;90.90;;;;;;7404449;19;19910;-72
2023/06/30 04:18:07;;;;;;;12.98;5.45;;;21.20;91.30;;;;;;7404404;19;19934;-73
2023/06/30 04:20:32;;;;;;;7.53;4.13;;;21.20;91.20;;;;;;7402478;19;19922;-73
2023/06/30 04:22:58;;;;;;;10.25;5.20;;;21.10;91.30;;;;;;7403664;19;19918;-72
2023/06/30 04:25:24;;;;;;;9.48;4.72;;;21.10;91.20;;;;;;7380102;19;19923;-73
2023/06/30 04:27:50;;;;;;;9.40;4.70;;;21.10;91.20;;;;;;7399349;19;19915;-73
2023/06/30 04:30:16;;;;;;;7.78;4.75;;;21.20;91.50;;;;;;7399853;19;19915;-73
2023/06/30 04:32:41;;;;;;;9.30;4.75;;;21.20;91.30;;;;;;7402255;19;19919;-72
2023/06/30 04:35:08;;;;;;;9.05;4.30;;;21.30;91.30;;;;;;7396044;19;19914;-72
2023/06/30 04:37:40;;;;;;;8.38;4.47;;;21.30;91.10;;;;;;7400670;19;19918;-73
2023/06/30 04:40:10;;;;;;;9.32;5.28;;;21.30;91.30;;;;;;7399538;19;20470;-73
2023/06/30 04:42:36;;;;;;;10.32;5.03;;;21.30;91.40;;;;;;7400917;19;20251;-72
2023/06/30 04:45:03;;;;;;;9.63;4.38;;;21.30;91.30;;;;;;7401540;19;19935;-73
2023/06/30 04:47:29;;;;;;;10.07;6.00;;;21.30;91.40;;;;;;7399207;19;19977;-72
2023/06/30 04:49:55;;;;;;;11.18;4.88;;;21.20;91.70;;;;;;7374897;19;19919;-72
2023/06/30 04:52:21;;;;;;;12.13;5.40;;;21.20;91.80;;;;;;7397802;19;19915;-72
2023/06/30 04:54:46;;;;;;;8.35;5.07;;;21.20;92.10;;;;;;7402071;19;19978;-73
2023/06/30 04:57:12;;;;;;;9.25;4.18;;;21.10;92.20;;;;;;7401451;19;19925;-73
2023/06/30 04:59:38;;;;;;;8.07;4.53;;;21.20;91.80;;;;;;7403811;19;19915;-73
2023/06/30 05:02:04;;;;;;;9.52;5.28;;;21.20;91.80;;;;;;7399221;19;20335;-73
2023/06/30 05:04:30;;;;;;;7.28;4.38;;;21.30;91.90;;;;;;7400625;19;19974;-73
2023/06/30 05:06:57;;;;;;;9.25;4.35;;;21.30;91.90;;;;;;7400755;19;19919;-73
2023/06/30 05:09:23;;;;;;;8.88;5.18;;;21.20;91.70;;;;;;7396528;19;19921;-73
2023/06/30 05:11:49;;;;;;;8.23;4.25;;;21.30;91.70;;;;;;7401879;19;19914;-72
2023/06/30 05:14:15;;;;;;;8.05;4.47;;;21.30;91.70;;;;;;7401044;19;19914;-73
2023/06/30 05:16:41;;;;;;;11.02;4.57;;;21.30;91.80;;;;;;7401482;19;19922;-72
2023/06/30 05:19:08;;;;;;;7.85;4.22;;;21.30;91.40;;;;;;7396304;19;19914;-73
2023/06/30 05:21:34;;;;;;;10.30;4.70;;;21.30;91.20;;;;;;7402685;19;20548;-73
2023/06/30 05:23:59;;;;;;;8.38;4.57;;;21.40;91.00;;;;;;7401455;19;19914;-73
2023/06/30 05:26:25;;;;;;;8.30;4.40;;;21.40;91.00;;;;;;7399363;19;19949;-72
2023/06/30 05:28:51;;;;;;;9.45;4.30;;;21.50;90.70;;;;;;7399517;19;19993;-73
2023/06/30 05:31:17;;;;;;;9.48;5.53;;;21.50;90.50;;;;;;7394815;19;19999;-72
2023/06/30 05:33:42;;;;;;;9.63;4.22;;;21.50;90.60;;;;;;7400418;19;19936;-73
2023/06/30 05:36:08;;;;;;;9.52;5.18;;;21.50;90.70;;;;;;7399257;19;19994;-72
2023/06/30 05:38:34;;;;;;;11.15;4.90;;;21.50;90.90;;;;;;7400332;19;19911;-72
2023/06/30 05:41:00;;;;;;;8.18;4.65;;;21.50;91.00;;;;;;7401254;19;19914;-72
2023/06/30 05:43:26;;;;;;;11.02;4.68;;;21.50;91.00;;;;;;7396900;19;19922;-72
2023/06/30 05:45:51;;;;;;;10.38;5.10;;;21.50;91.00;;;;;;7401177;19;19919;-73
2023/06/30 05:48:17;;;;;;;8.30;4.35;;;21.50;91.30;;;;;;7397913;19;19914;-73
2023/06/30 05:50:45;;;;;;;12.43;4.90;;;21.40;91.20;;;;;;7354955;19;19927;-71
2023/06/30 05:53:11;;;;;;;8.55;5.38;;;21.40;91.80;;;;;;7390978;19;19951;-72
2023/06/30 05:55:37;;;;;;;8.95;5.10;;;21.40;91.70;;;;;;7398255;19;19950;-72
2023/06/30 05:58:03;;;;;;;9.20;4.75;;;21.40;91.80;;;;;;7395469;19;19927;-71
2023/06/30 06:00:29;;;;;;;8.95;5.43;;;21.50;91.60;;;;;;7399902;19;19922;-72
2023/06/30 06:02:54;;;;;;;9.38;5.43;;;21.50;91.60;;;;;;7398971;19;20282;-71
2023/06/30 06:05:20;;;;;;;9.82;4.93;;;21.50;92.30;;;;;;7394056;19;19931;-72
2023/06/30 06:07:48;;;;;;;8.15;3.97;;;21.50;91.70;;;;;;7396052;19;19945;-72
2023/06/30 06:10:14;;;;;;;10.48;5.15;;;21.60;91.50;;;;;;7393564;19;19919;-71
2023/06/30 06:12:40;;;;;;;9.23;4.70;;;21.60;91.60;;;;;;7400112;19;19918;-71
2023/06/30 06:15:07;;;;;;;9.23;5.78;;;21.60;91.50;;;;;;7394933;19;19939;-72
2023/06/30 06:17:33;;;;;;;9.32;5.20;;;21.70;91.50;;;;;;7398316;19;19950;-72
2023/06/30 06:19:58;;;;;;;9.75;5.32;;;21.60;91.70;;;;;;7390720;19;20002;-73
2023/06/30 06:22:24;;;;;;;10.50;6.00;;;21.70;91.90;;;;;;7398864;19;19921;-72
2023/06/30 06:24:50;;;;;;;11.48;6.18;;;21.60;92.10;;;;;;7397997;19;20387;-71
2023/06/30 06:27:16;;;;;;;10.15;5.53;;;21.70;92.00;;;;;;7395084;19;20398;-71
2023/06/30 06:29:42;;;;;;;9.65;5.45;;;21.80;91.80;;;;;;7395669;19;19928;-72
2023/06/30 06:32:08;;;;;;;9.40;5.25;;;21.80;91.80;;;;;;7402470;19;20034;-72
2023/06/30 06:34:34;;;;;;;9.68;4.88;;;21.70;91.90;;;;;;7401675;19;20244;-72
2023/06/30 06:37:00;;;;;;;;;;;21.60;92.30;;;;;;7407781;19;19922;-71
2023/06/30 06:39:26;;;;;;;9.65;4.70;;;21.70;92.20;;;;;;7395146;19;19914;-73
2023/06/30 06:41:52;;;;;;;9.82;5.13;;;21.60;92.10;;;;;;7403713;19;20259;-72
2023/06/30 06:44:18;;;;;;;9.18;5.00;;;21.70;92.00;;;;;;7403935;19;19940;-72
2023/06/30 06:46:44;;;;;;;12.27;5.18;;;21.70;91.70;;;;;;7405424;19;19911;-72
2023/06/30 06:49:10;;;;;;;8.82;5.43;;;21.70;91.60;;;;;;7400942;19;19914;-72
2023/06/30 06:51:36;;;;;;;10.18;5.75;;;21.70;91.80;;;;;;7404381;19;19925;-71
2023/06/30 06:54:03;;;;;;;10.25;5.88;;;21.70;91.70;;;;;;7405270;19;19926;-72
2023/06/30 06:56:29;;;;;;;9.55;5.57;;;21.90;91.40;;;;;;7402592;19;19987;-72
2023/06/30 06:58:55;;;;;;;9.00;5.15;;;22.10;90.90;;;;;;7403950;19;19918;-72
2023/06/30 07:01:21;;;;;;;9.55;5.38;;;22.30;90.40;;;;;;7403245;19;19915;-73
2023/06/30 07:03:46;;;;;;;8.52;4.72;;;22.40;89.40;;;;;;7386203;19;19970;-71
2023/06/30 07:06:12;;;;;;;8.40;4.63;;;22.40;89.10;;;;;;7394036;19;20014;-73
2023/06/30 07:08:39;;;;;;;9.80;5.53;;;22.50;89.20;;;;;;7405800;19;19911;-74
2023/06/30 07:11:06;;;;;;;;;;;22.60;88.50;;;;;;7396951;19;19923;-74
2023/06/30 07:13:32;;;;;;;9.15;5.10;;;22.70;87.50;;;;;;7398039;19;19982;-74
2023/06/30 07:15:58;;;;;;;;;;;22.80;86.70;;;;;;7398185;19;19918;-74
2023/06/30 07:18:24;;;;;;;8.90;5.60;;;23.00;85.10;;;;;;7403699;19;19930;-73
2023/06/30 07:20:52;;;;;;;10.07;5.18;;;23.10;84.10;;;;;;7403282;19;20232;-74
2023/06/30 07:23:18;;;;;;;9.25;5.07;;;23.20;83.70;;;;;;7401566;19;20253;-74
2023/06/30 07:25:45;;;;;;;9.18;4.90;;;23.20;83.10;;;;;;7402276;19;19932;-73
2023/06/30 07:28:11;;;;;;;8.70;5.43;;;23.40;82.20;;;;;;7369942;19;20347;-73
2023/06/30 07:30:37;;;;;;;8.50;4.93;;;23.50;79.70;;;;;;7399774;19;19918;-73
2023/06/30 07:33:03;;;;;;;9.18;5.13;;;23.60;78.80;;;;;;7399809;19;19907;-73
2023/06/30 07:35:29;;;;;;;10.90;5.82;;;23.70;78.50;;;;;;7401392;19;19918;-73
2023/06/30 07:37:55;;;;;;;8.68;5.95;;;23.90;77.90;;;;;;7402496;19;20013;-73
2023/06/30 07:40:21;;;;;;;9.60;4.88;;;24.00;77.40;;;;;;7401222;19;19917;-73
2023/06/30 07:42:47;;;;;;;9.50;5.70;;;24.20;77.20;;;;;;7400788;19;20521;-73
2023/06/30 07:45:17;;;;;;;8.52;5.47;;;24.50;75.80;;;;;;7402115;19;20368;-73
2023/06/30 07:47:44;;;;;;;9.27;6.05;;;24.90;74.30;;;;;;7401775;19;19934;-73
2023/06/30 07:50:12;;;;;;;8.75;6.20;;;25.10;72.70;;;;;;7402022;19;19917;-73
2023/06/30 07:52:56;;;;;;;8.65;4.95;;;25.00;71.20;;;;;;7403834;19;19923;-72
2023/06/30 07:55:22;;;;;;;11.50;5.30;;;25.10;70.10;;;;;;7403822;19;20006;-72
2023/06/30 07:57:49;;;;;;;8.80;5.07;;;25.50;68.50;;;;;;7400745;19;20365;-73
2023/06/30 08:00:16;;;;;;;9.73;6.03;;;25.60;66.00;;;;;;7396753;19;19946;-73
2023/06/30 08:02:43;;;;;;;9.60;5.50;;;25.70;67.80;;;;;;7402041;19;20264;-73
2023/06/30 08:05:09;;;;;;;11.68;6.18;;;25.80;68.70;;;;;;7398459;19;19925;-73
2023/06/30 08:07:35;;;;;;;;;;;26.00;68.60;;;;;;7400840;19;19910;-74
2023/06/30 08:10:01;;;;;;;10.43;6.10;;;26.20;68.40;;;;;;7399973;19;19918;-73
2023/06/30 08:12:26;;;;;;;11.75;5.70;;;26.10;67.90;;;;;;7399749;19;19919;-73
2023/06/30 08:14:53;;;;;;;11.52;6.93;;;26.40;67.50;;;;;;7403148;19;19957;-74
2023/06/30 08:17:19;;;;;;;11.10;5.50;;;26.70;67.40;;;;;;7398734;19;20307;-74
2023/06/30 08:19:45;;;;;;;13.05;6.72;;;26.70;67.20;;;;;;7402066;19;19919;-73
2023/06/30 08:22:15;;;;;;;12.88;6.50;;;26.60;67.80;;;;;;7397870;19;20342;-73
2023/06/30 08:24:42;;;;;;;11.85;6.95;;;26.40;68.20;;;;;;7402326;19;20007;-71
2023/06/30 08:27:09;;;;;;;11.52;6.68;;;26.50;68.30;;;;;;7360850;19;19919;-73
2023/06/30 08:29:37;;;;;;;11.07;6.75;;;26.20;66.70;;;;;;7399581;19;19943;-75
2023/06/30 08:32:03;;;;;;;10.40;6.05;;;26.30;67.30;;;;;;7397560;19;20322;-73
2023/06/30 08:34:29;;;;;;;12.25;7.05;;;26.30;67.60;;;;;;7403204;19;20517;-73
2023/06/30 08:36:56;;;;;;;9.90;6.55;;;26.40;66.80;;;;;;7400336;19;19934;-75
2023/06/30 08:39:23;;;;;;;13.20;6.63;;;26.40;66.60;;;;;;7380883;19;20031;-73
2023/06/30 08:41:53;;;;;;;21.48;15.32;;;26.60;66.50;;;;;;7402904;19;19933;-73
2023/06/30 08:44:23;;;;;;;14.02;7.97;;;26.70;66.70;;;;;;7392066;19;19994;-73
2023/06/30 08:46:54;;;;;;;17.67;7.90;;;26.70;66.90;;;;;;7401739;19;19961;-72
2023/06/30 08:49:25;;;;;;;13.10;8.27;;;26.30;68.20;;;;;;7379475;19;19927;-73
2023/06/30 08:51:56;;;;;;;11.45;7.88;;;27.60;67.00;;;;;;7395238;19;19919;-73
2023/06/30 08:54:27;;;;;;;16.77;7.97;;;28.70;64.00;;;;;;7398765;19;20262;-73
2023/06/30 08:56:54;;;;;;;14.65;8.90;;;29.70;61.40;;;;;;7391327;19;19919;-73
2023/06/30 08:59:20;;;;;;;14.00;8.15;;;30.50;59.10;;;;;;7400117;19;19921;-73
2023/06/30 09:01:47;;;;;;;15.45;8.48;;;30.60;57.90;;;;;;7396363;19;20327;-73
2023/06/30 09:04:14;;;;;;;17.30;8.98;;;30.80;56.60;;;;;;7398185;19;19923;-73
2023/06/30 09:06:47;;;;;;;13.35;8.90;;;30.10;56.90;;;;;;7396512;19;19978;-73
2023/06/30 09:09:23;;;;;;;14.45;9.55;;;28.50;59.50;;;;;;7396514;19;19918;-74
2023/06/30 09:11:50;;;;;;;12.82;9.27;;;27.20;63.70;;;;;;7396285;19;20558;-73
2023/06/30 09:14:17;;;;;;;10.75;7.97;;;27.30;65.50;;;;;;7396455;19;20343;-73
2023/06/30 09:16:43;;;;;;;12.98;9.07;;;28.40;63.20;;;;;;7398685;19;19918;-73
2023/06/30 09:19:09;;;;;;;;;;;28.90;60.80;;;;;;7325738;19;19947;-73
2023/06/30 09:21:36;;;;;;;15.57;9.55;;;29.30;59.50;;;;;;7402771;19;20611;-74
2023/06/30 09:24:03;;;;;;;13.00;8.60;;;29.80;58.10;;;;;;7400231;19;19925;-73
2023/06/30 09:26:38;;;;;;;12.00;8.00;;;29.00;59.30;;;;;;7397625;19;19939;-73
2023/06/30 09:29:12;;;;;;;17.08;9.63;;;28.40;60.60;;;;;;7381011;19;19918;-73
2023/06/30 09:31:38;;;;;;;16.48;8.45;;;27.70;62.20;;;;;;7400618;19;19922;-73
2023/06/30 09:34:12;;;;;;;13.70;9.10;;;28.50;60.90;;;;;;7397990;19;19938;-71
2023/06/30 09:36:46;;;;;;;13.85;8.43;;;29.80;58.50;;;;;;7398825;19;19948;-73
2023/06/30 09:39:12;;;;;;;13.15;8.63;;;29.80;57.30;;;;;;7398273;19;19915;-75
2023/06/30 09:41:45;;;;;;;15.10;8.50;;;29.50;58.00;;;;;;7400803;19;20478;-73
2023/06/30 09:44:12;;;;;;;13.45;8.30;;;29.00;59.30;;;;;;7398044;19;20219;-72
2023/06/30 09:46:45;;;;;;;14.95;8.50;;;29.10;59.30;;;;;;7396263;19;19926;-72
2023/06/30 09:49:30;;;;;;;14.05;9.05;;;28.70;59.70;;;;;;7393792;19;19922;-74
2023/06/30 09:51:57;;;;;;;14.68;8.85;;;28.30;60.90;;;;;;7396886;19;19915;-72
2023/06/30 09:54:24;;;;;;;13.52;10.00;;;28.10;63.00;;;;;;7394809;19;19944;-73
2023/06/30 09:56:58;;;;;;;14.80;9.45;;;28.10;62.70;;;;;;7399495;19;19949;-73
2023/06/30 09:59:23;;;;;;;13.10;9.80;;;27.80;63.70;;;;;;7397871;19;19919;-72
2023/06/30 10:01:55;;;;;;;12.85;8.63;;;27.60;64.40;;;;;;7400941;19;19930;-74
2023/06/30 10:04:25;;;;;;;13.80;9.60;;;27.50;64.90;;;;;;7398147;19;19922;-73
2023/06/30 10:06:52;;;;;;;14.63;9.75;;;27.00;65.60;;;;;;7400186;19;20266;-73
2023/06/30 10:09:23;;;;;;;13.20;9.75;;;27.10;66.20;;;;;;7403666;19;19911;-72
2023/06/30 10:11:56;;;;;;;13.20;9.45;;;26.90;66.60;;;;;;7403333;19;19912;-71
2023/06/30 10:14:32;;;;;;;12.32;9.13;;;26.30;67.50;;;;;;7404225;19;19939;-73
2023/06/30 10:17:01;;;;;;;12.90;9.15;;;26.60;67.80;;;;;;7407612;19;19931;-73
2023/06/30 10:19:28;;;;;;;14.07;8.48;;;26.70;67.50;;;;;;7401123;19;20272;-72
2023/06/30 10:21:57;;;;;;;13.80;8.65;;;26.70;67.30;;;;;;7406029;19;19922;-73
2023/06/30 10:24:27;;;;;;;13.48;8.50;;;26.80;66.80;;;;;;7403820;19;20858;-73
2023/06/30 10:26:54;;;;;;;16.45;10.38;;;27.00;66.30;;;;;;7402308;19;19922;-72
2023/06/30 10:29:20;;;;;;;13.85;9.15;;;27.10;65.50;;;;;;7404049;19;19942;-73
2023/06/30 10:31:47;;;;;;;14.20;9.23;;;27.30;64.90;;;;;;7405401;19;19922;-73
2023/06/30 10:34:12;;;;;;;;;;;27.40;64.60;;;;;;7406535;19;20434;-73
2023/06/30 10:36:39;;;;;;;13.27;8.77;;;27.30;64.60;;;;;;7406584;19;19932;-72
2023/06/30 10:39:05;;;;;;;11.30;8.80;;;27.40;64.40;;;;;;7403390;19;19923;-72
2023/06/30 10:41:45;;;;;;;;;;;27.40;64.40;;;;;;7408572;19;20255;-73
2023/06/30 10:44:11;;;;;;;12.27;8.85;;;27.50;64.30;;;;;;7403706;19;19918;-72
2023/06/30 10:46:41;;;;;;;15.88;9.95;;;27.40;64.20;;;;;;7404917;19;19922;-73
2023/06/30 10:49:07;;;;;;;13.20;8.70;;;27.50;64.20;;;;;;7400890;19;20335;-73
2023/06/30 10:51:37;;;;;;;13.23;8.88;;;27.40;63.90;;;;;;7403713;19;19925;-73
2023/06/30 10:54:03;;;;;;;16.33;9.50;;;27.20;64.50;;;;;;7402378;19;19930;-72
2023/06/30 10:56:29;;;;;;;14.23;9.18;;;27.10;65.10;;;;;;7406695;19;19969;-73
2023/06/30 10:58:58;;;;;;;16.02;9.13;;;27.20;65.10;;;;;;7404818;19;19918;-73
2023/06/30 11:01:27;;;;;;;17.70;8.23;;;26.80;65.90;;;;;;7405386;19;20210;-73
2023/06/30 11:03:56;;;;;;;16.90;9.48;;;26.80;67.00;;;;;;7403317;19;19923;-71
2023/06/30 11:06:22;;;;;;;16.88;9.15;;;26.70;67.60;;;;;;7402394;19;20017;-73
2023/06/30 11:09:01;;;;;;;;;;;26.70;68.20;;;;;;7409221;19;19927;-75
2023/06/30 11:11:27;;;;;;;16.75;9.82;;;26.70;68.30;;;;;;7402946;19;19934;-74
2023/06/30 11:14:06;;;;;;;17.00;10.13;;;26.70;68.30;;;;;;7406503;19;20742;-73
2023/06/30 11:17:06;;;;;;;17.63;10.10;;;26.50;68.20;;;;;;7405916;19;19919;-73
2023/06/30 11:19:32;;;;;;;15.32;10.15;;;26.60;68.20;;;;;;7352321;19;19921;-73
2023/06/30 11:22:29;;;;;;;15.90;9.93;;;26.40;68.70;;;;;;7400597;19;19917;-73
2023/06/30 11:24:56;;;;;;;15.88;10.05;;;26.30;69.70;;;;;;7406072;19;19930;-72
2023/06/30 11:27:22;;;;;;;15.02;10.32;;;26.10;70.10;;;;;;7401285;19;19918;-73
2023/06/30 11:29:53;;;;;;;17.58;9.93;;;26.20;70.10;;;;;;7403022;19;19974;-74
2023/06/30 11:32:26;;;;;;;20.50;10.63;;;26.50;69.60;;;;;;7404338;19;19936;-72
2023/06/30 11:34:52;;;;;;;17.02;9.18;;;26.90;68.70;;;;;;7403743;19;20364;-73
2023/06/30 11:37:18;;;;;;;15.73;8.02;;;26.90;68.30;;;;;;7402655;19;19918;-72
2023/06/30 11:39:51;;;;;;;15.55;9.95;;;26.80;68.00;;;;;;7403725;19;19922;-73
2023/06/30 11:42:21;;;;;;;13.23;8.90;;;26.70;68.00;;;;;;7350133;19;19931;-73
2023/06/30 11:44:50;;;;;;;16.35;9.88;;;27.20;67.40;;;;;;7405574;19;19914;-72
2023/06/30 11:47:17;;;;;;;14.32;9.10;;;26.80;67.30;;;;;;7401526;19;20010;-73
2023/06/30 11:49:43;;;;;;;13.82;8.52;;;26.60;67.40;;;;;;7401633;19;19914;-72
2023/06/30 11:52:09;;;;;;;14.40;9.25;;;26.20;68.30;;;;;;7404266;19;19927;-72
2023/06/30 11:54:37;;;;;;;;;;;26.10;68.80;;;;;;7403788;19;19914;-72
2023/06/30 11:57:04;;;;;;;16.25;9.52;;;26.40;68.80;;;;;;7383424;19;19929;-73
2023/06/30 11:59:32;;;;;;;15.27;9.85;;;27.20;67.40;;;;;;7292112;19;19918;-73
2023/06/30 12:02:00;;;;;;;18.30;10.73;;;27.70;66.20;;;;;;7392126;19;19975;-72
2023/06/30 12:04:26;;;;;;;13.95;8.35;;;28.20;63.30;;;;;;7347382;19;19947;-73
2023/06/30 12:06:56;;;;;;;15.50;9.30;;;27.90;64.20;;;;;;7395001;19;19918;-73
2023/06/30 12:09:25;;;;;;;15.77;9.13;;;27.20;65.80;;;;;;7399575;19;19931;-72
2023/06/30 12:11:50;;;;;;;17.40;9.75;;;28.10;64.80;;;;;;7402108;19;19914;-73
2023/06/30 12:14:21;;;;;;;14.75;8.85;;;28.90;62.90;;;;;;7379834;19;20040;-72
2023/06/30 12:16:48;;;;;;;16.77;9.27;;;29.60;60.90;;;;;;7403327;19;19919;-73
2023/06/30 12:19:15;;;;;;;13.65;8.63;;;29.80;60.30;;;;;;7384290;19;19911;-73
2023/06/30 12:21:57;;;;;;;13.40;8.68;;;30.20;59.90;;;;;;7371835;19;20544;-74
2023/06/30 12:24:23;;;;;;;12.88;8.27;;;30.80;58.00;;;;;;7401560;19;19926;-74
2023/06/30 12:26:51;;;;;;;13.32;8.85;;;30.60;58.50;;;;;;7403323;19;19914;-75
2023/06/30 12:29:17;;;;;;;13.07;9.27;;;29.70;59.10;;;;;;7365688;19;19919;-74
2023/06/30 12:31:45;;;;;;;12.50;9.48;;;29.20;60.30;;;;;;7371469;19;20666;-73
2023/06/30 12:34:12;;;;;;;13.70;9.35;;;28.20;62.80;;;;;;7368755;19;20015;-72
2023/06/30 12:36:39;;;;;;;13.25;9.88;;;28.20;64.00;;;;;;7402007;19;19935;-72
2023/06/30 12:39:11;;;;;;;12.70;8.60;;;28.90;63.00;;;;;;7401824;19;19986;-72
2023/06/30 12:41:37;;;;;;;12.80;7.95;;;28.50;63.30;;;;;;7400922;19;19914;-72
2023/06/30 12:44:03;;;;;;;16.40;8.55;;;29.60;61.80;;;;;;7387656;19;19929;-72
2023/06/30 12:46:29;;;;;;;;;;;30.20;60.20;;;;;;7403268;19;20335;-72
2023/06/30 12:48:54;;;;;;;15.25;9.23;;;30.10;59.30;;;;;;7401893;19;19928;-73
2023/06/30 12:51:20;;;;;;;13.70;10.65;;;30.80;58.30;;;;;;7400708;19;19910;-72
2023/06/30 12:53:51;;;;;;;;;;;31.80;56.50;;;;;;7404685;19;19918;-75
2023/06/30 12:56:18;;;;;;;14.75;9.95;;;31.10;56.60;;;;;;7397192;19;19918;-74
2023/06/30 12:58:44;;;;;;;13.23;8.57;;;30.10;57.90;;;;;;7403618;19;19936;-74
2023/06/30 13:01:09;;;;;;;13.10;8.80;;;29.40;58.70;;;;;;7402537;19;19915;-73
2023/06/30 13:03:35;;;;;;;15.30;9.85;;;28.80;60.90;;;;;;7398292;19;20353;-72
2023/06/30 13:06:02;;;;;;;;;;;28.70;61.20;;;;;;7404932;19;20329;-72
2023/06/30 13:08:28;;;;;;;13.18;8.88;;;28.50;62.60;;;;;;7399018;19;20256;-74
2023/06/30 13:10:54;;;;;;;16.60;9.05;;;29.70;60.00;;;;;;7371247;19;19934;-73
2023/06/30 13:13:21;;;;;;;12.27;8.85;;;30.10;58.70;;;;;;7401030;19;19926;-73
2023/06/30 13:15:47;;;;;;;11.50;8.57;;;29.10;60.00;;;;;;7400746;19;19931;-71
2023/06/30 13:18:13;;;;;;;14.15;8.88;;;28.90;61.00;;;;;;7347942;19;19925;-73
2023/06/30 13:20:38;;;;;;;14.45;10.20;;;29.00;61.20;;;;;;7399153;19;19911;-74